Time;durP1;ratioP1;P1;durP2;ratioP2;P2;SDS_P1;SDS_P2;PMS_P1;PMS_P2;Temp;Humidity;BMP_temperature;BMP_pressure;BME280_temperature;BME280_humidity;BME280_pressure;Samples;Min_cycle;Max_cycle;Signal;HPM_P1;HPM_P2
2022/01/16 00:00:15;;;;;;;;;;;;;;;-4.49;98.51;99456.63;5030721;28;19924;-64
2022/01/16 00:05:27;;;;;;;;;;;;;;;-4.51;98.82;99435.50;5034325;28;20078;-75
2022/01/16 00:07:55;;;;;;;;;;;;;;;-4.51;98.66;99433.78;5033864;28;20371;-74
2022/01/16 00:10:24;;;;;;;;;;;;;;;-4.44;98.61;99421.88;5033833;28;19921;-74
2022/01/16 00:12:52;;;;;;;;;;;;;;;-4.39;98.26;99415.84;5034153;28;19927;-64
2022/01/16 00:15:22;;;;;;;;;;;;;;;-4.30;98.38;99409.78;5034066;28;19921;-71
2022/01/16 00:17:54;;;;;;;;;;;;;;;-4.25;98.19;99400.38;5033804;28;20394;-65
2022/01/16 00:20:20;;;;;;;;;;;;;;;-4.15;98.75;99385.81;5033877;28;19921;-66
2022/01/16 00:22:48;;;;;;;;;;;;;;;-4.09;98.45;99373.00;5033735;28;20375;-64
2022/01/16 00:25:16;;;;;;;;;;;;;;;-3.96;98.96;99371.94;5033790;28;20023;-64
2022/01/16 00:27:43;;;;;;;;;;;;;;;-3.88;98.53;99368.41;5033743;28;20426;-68
2022/01/16 00:30:11;;;;;;;;;;;;;;;-3.84;98.35;99353.09;5033899;28;19920;-70
2022/01/16 00:32:37;;;;;;;;;;;;;;;-3.79;98.07;99348.75;5033643;28;19936;-70
2022/01/16 00:35:04;;;;;;;;;;;;;;;-3.76;98.42;99338.53;5034164;28;19925;-69
2022/01/16 00:37:31;;;;;;;;;;;;;;;-3.73;98.33;99337.63;5033493;28;19924;-65
2022/01/16 00:39:57;;;;;;;;;;;;;;;-3.57;98.49;99345.78;5033758;28;19921;-73
2022/01/16 00:42:25;;;;;;;;;;;;;;;-3.39;99.21;99334.41;5033872;28;19921;-73
2022/01/16 00:44:52;;;;;;;;;;;;;;;-2.99;99.24;99325.91;5033842;28;19921;-70
2022/01/16 00:47:18;;;;;;;;;;;;;;;-2.63;99.09;99317.41;5033767;28;19921;-68
2022/01/16 00:49:45;;;;;;;;;;;;;;;-2.45;98.39;99317.84;5033141;28;19920;-73
2022/01/16 00:52:11;;;;;;;;;;;;;;;-2.29;97.88;99314.03;5033095;28;19928;-70
2022/01/16 00:54:38;;;;;;;;;;;;;;;-2.19;97.43;99315.47;5033549;28;19921;-74
2022/01/16 00:57:05;;;;;;;;;;;;;;;-2.15;97.11;99311.13;5033229;28;20298;-75
2022/01/16 00:59:33;;;;;;;;;;;;;;;-2.12;97.36;99292.38;5033518;28;19928;-70
2022/01/16 01:02:01;;;;;;;;;;;;;;;-2.03;97.02;99277.69;5033180;28;19921;-71
2022/01/16 01:04:27;;;;;;;;;;;;;;;-1.99;96.70;99281.81;5033110;28;20019;-67
2022/01/16 01:06:55;;;;;;;;;;;;;;;-2.00;96.66;99264.84;5033389;28;19928;-66
2022/01/16 01:09:21;;;;;;;;;;;;;;;-1.94;96.46;99261.28;5033178;28;19928;-74
2022/01/16 01:11:50;;;;;;;;;;;;;;;-1.91;96.02;99248.47;5033127;28;19928;-72
2022/01/16 01:14:24;;;;;;;;;;;;;;;-1.86;95.88;99246.63;5032971;28;19944;-70
2022/01/16 01:16:54;;;;;;;;;;;;;;;-1.91;96.14;99232.34;5032830;28;19960;-64
2022/01/16 01:19:23;;;;;;;;;;;;;;;-1.88;95.90;99235.63;5032908;28;20326;-64
2022/01/16 01:21:50;;;;;;;;;;;;;;;-1.82;95.68;99226.97;5032994;28;19960;-73
2022/01/16 01:24:17;;;;;;;;;;;;;;;-1.80;95.38;99225.19;5032864;28;19928;-70
2022/01/16 01:26:52;;;;;;;;;;;;;;;-1.73;95.47;99210.56;5032823;28;19921;-74
2022/01/16 01:29:20;;;;;;;;;;;;;;;-1.70;95.44;99208.75;5032759;28;19921;-74
2022/01/16 01:31:47;;;;;;;;;;;;;;;-1.72;95.54;99208.00;5032805;28;20360;-67
2022/01/16 01:34:15;;;;;;;;;;;;;;;-1.69;95.66;99192.59;5032759;28;19921;-74
2022/01/16 01:36:47;;;;;;;;;;;;;;;-1.63;95.58;99183.91;5032846;28;20027;-74
2022/01/16 01:39:14;;;;;;;;;;;;;;;-1.60;95.52;99192.28;5032847;28;19920;-74
2022/01/16 01:41:40;;;;;;;;;;;;;;;-1.58;95.34;99185.44;5032614;28;19928;-74
2022/01/16 01:52:21;;;;;;;;;;;;;;;-1.57;95.64;99164.16;5032726;28;19928;-73
2022/01/16 01:54:48;;;;;;;;;;;;;;;-1.50;95.43;99154.59;5032774;28;19921;-74
2022/01/16 01:57:14;;;;;;;;;;;;;;;-1.49;95.25;99147.78;5032764;28;19921;-73
2022/01/16 01:59:41;;;;;;;;;;;;;;;-1.48;95.27;99141.81;5032637;28;19944;-73
2022/01/16 02:02:08;;;;;;;;;;;;;;;-1.39;95.23;99141.50;5034089;28;19921;-74
2022/01/16 02:04:34;;;;;;;;;;;;;;;-1.34;94.75;99117.53;5036365;28;19992;-74
2022/01/16 02:07:02;;;;;;;;;;;;;;;-1.33;94.74;99105.59;5036312;28;19920;-73
2022/01/16 02:09:29;;;;;;;;;;;;;;;-1.22;94.29;99116.28;5036478;28;19921;-74
2022/01/16 02:11:56;;;;;;;;;;;;;;;-1.13;94.46;99105.78;5036545;28;19921;-74
2022/01/16 02:14:29;;;;;;;;;;;;;;;-1.11;94.11;99092.94;5036280;28;19920;-73
2022/01/16 02:28:08;;;;;;;;;;;;;;;-1.14;94.20;99086.22;5036150;28;19932;-74
2022/01/16 02:36:27;;;;;;;;;;;;;;;-1.13;93.76;99072.59;4975072;28;19949;-73
2022/01/16 02:38:59;;;;;;;;;;;;;;;-1.05;93.42;99079.13;5012867;28;19967;-72
2022/01/16 02:41:25;;;;;;;;;;;;;;;-1.05;93.43;99045.94;5035864;28;19921;-71
2022/01/16 02:43:54;;;;;;;;;;;;;;;-1.04;93.54;99043.34;5035830;28;19921;-73
2022/01/16 02:46:39;;;;;;;;;;;;;;;-1.06;93.72;99042.56;5035811;28;19921;-66
2022/01/16 02:49:16;;;;;;;;;;;;;;;-0.99;93.61;99027.88;5035749;28;19927;-70
2022/01/16 02:51:43;;;;;;;;;;;;;;;-0.98;93.51;99021.88;5035736;28;19921;-73
2022/01/16 02:54:11;;;;;;;;;;;;;;;-0.99;93.79;99038.09;5035473;28;19920;-73
2022/01/16 02:56:39;;;;;;;;;;;;;;;-0.93;93.72;99030.19;5035541;28;19921;-73
2022/01/16 02:59:07;;;;;;;;;;;;;;;-0.95;93.44;99032.81;5035519;28;20008;-72
2022/01/16 03:01:34;;;;;;;;;;;;;;;-0.93;93.57;99040.41;5035494;28;20004;-73
2022/01/16 03:04:01;;;;;;;;;;;;;;;-0.92;93.61;99027.59;5035563;28;19921;-73
2022/01/16 03:06:27;;;;;;;;;;;;;;;-0.94;93.28;99005.56;5035493;28;19928;-73
2022/01/16 03:08:54;;;;;;;;;;;;;;;-0.90;93.50;99002.00;5035261;28;20349;-72
2022/01/16 03:11:28;;;;;;;;;;;;;;;-0.97;93.60;98904.38;5035119;28;20000;-72
2022/01/16 03:13:54;;;;;;;;;;;;;;;-0.96;93.97;98865.19;5034325;28;20356;-73
2022/01/16 03:16:22;;;;;;;;;;;;;;;-0.92;93.90;98871.03;5035344;28;19921;-73
2022/01/16 03:24:13;;;;;;;;;;;;;;;-0.91;94.06;98882.91;5035150;28;20074;-73
2022/01/16 03:26:41;;;;;;;;;;;;;;;-0.89;93.65;98902.38;5035184;28;19921;-74
2022/01/16 03:29:08;;;;;;;;;;;;;;;-0.91;94.30;98886.28;5035104;28;19921;-74
2022/01/16 03:31:35;;;;;;;;;;;;;;;-0.89;93.68;98919.44;5034894;28;19921;-73
2022/01/16 03:34:01;;;;;;;;;;;;;;;-0.87;93.75;98910.00;5034576;28;19921;-73
2022/01/16 03:36:28;;;;;;;;;;;;;;;-0.84;93.89;98893.72;5034908;28;19925;-73
2022/01/16 03:38:54;;;;;;;;;;;;;;;-0.87;93.55;98892.13;5034853;28;19928;-68
2022/01/16 03:41:21;;;;;;;;;;;;;;;-0.87;93.52;98897.22;5034983;28;19921;-73
2022/01/16 03:43:49;;;;;;;;;;;;;;;-0.85;94.07;98890.31;5034785;28;19928;-73
2022/01/16 03:46:16;;;;;;;;;;;;;;;-0.82;93.51;98861.28;5034549;28;19924;-72
2022/01/16 03:48:42;;;;;;;;;;;;;;;-0.84;93.62;98856.25;5034555;28;20398;-74
2022/01/16 03:51:09;;;;;;;;;;;;;;;-0.81;93.52;98863.78;5034492;28;19928;-73
2022/01/16 03:53:36;;;;;;;;;;;;;;;-0.83;93.73;98865.56;5034329;28;19921;-73
2022/01/16 03:56:02;;;;;;;;;;;;;;;-0.84;93.72;98868.19;5034508;28;19921;-73
2022/01/16 03:58:29;;;;;;;;;;;;;;;-0.85;93.76;98877.53;5034771;28;19921;-73
2022/01/16 04:00:57;;;;;;;;;;;;;;;-0.83;93.90;98880.06;5034515;28;19921;-73
2022/01/16 04:03:23;;;;;;;;;;;;;;;-0.79;93.54;98900.31;5034434;28;19921;-74
2022/01/16 04:05:50;;;;;;;;;;;;;;;-0.77;93.51;98867.91;5034181;28;20410;-73
2022/01/16 04:08:16;;;;;;;;;;;;;;;-0.75;93.51;98855.88;5034397;28;19925;-73
2022/01/16 04:10:43;;;;;;;;;;;;;;;-0.73;93.63;98869.41;5034207;28;19944;-73
2022/01/16 04:13:11;;;;;;;;;;;;;;;-0.68;92.97;98846.25;5034064;28;19921;-71
2022/01/16 04:15:37;;;;;;;;;;;;;;;-0.66;93.58;98850.41;5034002;28;19921;-73
2022/01/16 04:18:06;;;;;;;;;;;;;;;-0.70;93.29;98850.59;5033780;28;19921;-69
2022/01/16 04:20:34;;;;;;;;;;;;;;;-0.74;93.84;98834.56;5033703;28;19932;-73
2022/01/16 04:23:01;;;;;;;;;;;;;;;-0.73;93.82;98833.66;5033974;28;19964;-71
2022/01/16 04:25:28;;;;;;;;;;;;;;;-0.76;93.66;98828.69;5032938;28;19996;-67
2022/01/16 04:27:54;;;;;;;;;;;;;;;-0.78;93.96;98829.63;5033982;28;20291;-72
2022/01/16 04:30:21;;;;;;;;;;;;;;;-0.80;94.36;98824.56;5033850;28;19987;-73
2022/01/16 04:32:47;;;;;;;;;;;;;;;-0.76;93.97;98817.66;5033737;28;20435;-73
2022/01/16 04:35:15;;;;;;;;;;;;;;;-0.74;93.98;98809.03;5033972;28;19925;-72
2022/01/16 04:37:42;;;;;;;;;;;;;;;-0.73;94.43;98804.75;5033670;28;19936;-72
2022/01/16 04:40:10;;;;;;;;;;;;;;;-0.74;94.16;98805.66;5033605;28;19924;-72
2022/01/16 04:45:21;;;;;;;;;;;;;;;-0.79;94.68;98782.84;5033840;28;20074;-73
2022/01/16 04:47:56;;;;;;;;;;;;;;;-0.74;94.67;98769.91;5131312;27;19927;-73
2022/01/16 04:50:25;;;;;;;;;;;;;;;-0.74;94.58;98769.91;5131160;27;19930;-74
2022/01/16 04:52:52;;;;;;;;;;;;;;;-0.73;94.90;98753.66;5131187;27;20034;-73
2022/01/16 04:55:19;;;;;;;;;;;;;;;-0.69;94.55;98761.16;5130965;27;19931;-73
2022/01/16 04:57:46;;;;;;;;;;;;;;;-0.73;94.57;98756.22;5131195;27;19930;-73
2022/01/16 05:00:13;;;;;;;;;;;;;;;-0.70;94.53;98754.38;5131259;27;19924;-73
2022/01/16 05:02:40;;;;;;;;;;;;;;;-0.73;95.04;98726.41;5131016;27;19930;-72
2022/01/16 05:05:09;;;;;;;;;;;;;;;-0.69;94.50;98704.13;5130745;27;19931;-73
2022/01/16 05:07:35;;;;;;;;;;;;;;;-0.69;94.60;98722.84;5130761;27;20278;-68
2022/01/16 05:10:02;;;;;;;;;;;;;;;-0.67;94.54;98721.06;5130792;27;20011;-71
2022/01/16 05:12:33;;;;;;;;;;;;;;;-0.68;94.92;98700.69;5130807;27;19923;-73
2022/01/16 05:17:45;;;;;;;;;;;;;;;-0.63;94.78;98716.63;5130621;28;19930;-70
2022/01/16 05:20:13;;;;;;;;;;;;;;;-0.55;94.19;98691.59;5130323;27;19923;-73
2022/01/16 05:22:40;;;;;;;;;;;;;;;-0.52;93.83;98682.97;5130340;27;19923;-73
2022/01/16 05:25:08;;;;;;;;;;;;;;;-0.60;94.52;98680.75;5130185;27;20011;-67
2022/01/16 05:27:34;;;;;;;;;;;;;;;-0.58;94.61;98667.91;5130420;27;19963;-74
2022/01/16 05:30:01;;;;;;;;;;;;;;;-0.63;94.59;98673.22;5130443;27;19923;-69
2022/01/16 05:32:28;;;;;;;;;;;;;;;-0.66;94.37;98669.06;5130343;27;20397;-73
2022/01/16 05:34:54;;;;;;;;;;;;;;;-0.62;94.91;98663.81;5130326;27;19924;-73
2022/01/16 05:37:22;;;;;;;;;;;;;;;-0.61;94.22;98656.09;5130098;27;20387;-72
2022/01/16 05:39:49;;;;;;;;;;;;;;;-0.64;94.77;98642.63;5130257;27;19924;-74
2022/01/16 05:42:16;;;;;;;;;;;;;;;-0.62;94.84;98638.28;5130036;27;19924;-73
2022/01/16 05:44:42;;;;;;;;;;;;;;;-0.64;94.90;98642.63;5130075;27;19931;-70
2022/01/16 05:47:12;;;;;;;;;;;;;;;-0.63;94.70;98632.34;5129680;27;19923;-72
2022/01/16 05:49:39;;;;;;;;;;;;;;;-0.62;95.14;98628.06;5129802;27;19923;-72
2022/01/16 05:52:06;;;;;;;;;;;;;;;-0.59;95.25;98641.56;5129991;27;19930;-74
2022/01/16 05:54:35;;;;;;;;;;;;;;;-0.60;95.32;98629.66;5130285;27;19927;-66
2022/01/16 05:57:01;;;;;;;;;;;;;;;-0.59;95.05;98616.00;5129434;27;19931;-74
2022/01/16 05:59:28;;;;;;;;;;;;;;;-0.53;95.16;98622.56;5116132;28;20290;-74
2022/01/16 06:01:55;;;;;;;;;;;;;;;-0.49;94.89;98618.97;5116131;28;20139;-73
2022/01/16 06:04:21;;;;;;;;;;;;;;;-0.48;94.96;98600.22;5115913;27;19924;-73
2022/01/16 06:06:48;;;;;;;;;;;;;;;-0.48;95.08;98600.22;5115970;28;19947;-72
2022/01/16 06:09:14;;;;;;;;;;;;;;;-0.56;94.73;98595.44;5115960;28;19931;-73
2022/01/16 06:11:42;;;;;;;;;;;;;;;-0.47;95.03;98589.09;5115915;28;19931;-72
2022/01/16 06:14:09;;;;;;;;;;;;;;;-0.45;94.73;98595.78;5115948;28;20294;-74
2022/01/16 06:16:35;;;;;;;;;;;;;;;-0.42;94.95;98587.16;5115848;28;19946;-72
2022/01/16 06:19:02;;;;;;;;;;;;;;;-0.42;94.99;98584.59;5115759;28;19923;-73
2022/01/16 06:21:29;;;;;;;;;;;;;;;-0.38;94.90;98581.03;5115564;28;20378;-73
2022/01/16 06:23:55;;;;;;;;;;;;;;;-0.40;94.69;98577.69;5115793;28;19951;-72
2022/01/16 06:26:22;;;;;;;;;;;;;;;-0.38;94.58;98572.53;5115645;28;19923;-73
2022/01/16 06:28:50;;;;;;;;;;;;;;;-0.34;94.25;98563.81;5115473;28;19924;-72
2022/01/16 06:31:16;;;;;;;;;;;;;;;-0.33;94.75;98560.38;5115385;28;19924;-72
2022/01/16 06:33:43;;;;;;;;;;;;;;;-0.30;94.71;98555.94;5115262;28;19931;-71
2022/01/16 06:36:09;;;;;;;;;;;;;;;-0.30;94.40;98543.16;5115594;28;19927;-72
2022/01/16 06:38:36;;;;;;;;;;;;;;;-0.22;94.13;98538.53;5115464;28;19931;-68
2022/01/16 06:41:03;;;;;;;;;;;;;;;-0.11;93.75;98545.69;5115530;28;19924;-72
2022/01/16 06:43:29;;;;;;;;;;;;;;;-0.02;93.80;98550.38;5115216;28;19930;-72
2022/01/16 06:45:57;;;;;;;;;;;;;;;0.03;93.71;98537.38;5115021;28;20305;-73
2022/01/16 06:48:24;;;;;;;;;;;;;;;0.08;93.63;98530.31;5115007;28;20381;-73
2022/01/16 06:50:50;;;;;;;;;;;;;;;0.11;93.59;98526.78;5115200;28;19924;-73
2022/01/16 06:53:17;;;;;;;;;;;;;;;0.09;93.69;98520.91;5114910;28;20293;-69
2022/01/16 06:55:44;;;;;;;;;;;;;;;0.12;93.36;98513.09;5115096;28;19935;-73
2022/01/16 06:58:10;;;;;;;;;;;;;;;0.10;93.36;98497.81;5115508;28;19915;-69
2022/01/16 07:00:37;;;;;;;;;;;;;;;0.07;93.54;98503.09;5114925;28;19924;-67
2022/01/16 07:03:05;;;;;;;;;;;;;;;0.11;93.21;98511.44;5115255;28;19928;-74
2022/01/16 07:05:31;;;;;;;;;;;;;;;0.05;93.85;98484.44;5114928;28;19923;-70
2022/01/16 07:07:58;;;;;;;;;;;;;;;0.12;93.57;98497.75;5114790;28;19939;-72
2022/01/16 07:10:24;;;;;;;;;;;;;;;0.15;93.20;98487.38;5113629;28;19924;-73
2022/01/16 07:12:51;;;;;;;;;;;;;;;0.07;93.42;98469.03;5114536;27;19953;-72
2022/01/16 07:15:17;;;;;;;;;;;;;;;0.06;93.12;98455.41;5114464;28;19923;-75
2022/01/16 07:17:44;;;;;;;;;;;;;;;0.01;93.43;98454.00;5100829;28;19928;-71
2022/01/16 07:20:14;;;;;;;;;;;;;;;-0.05;93.33;98453.38;5110586;28;20385;-76
2022/01/16 07:22:40;;;;;;;;;;;;;;;-0.05;94.05;98468.72;5093954;28;19924;-72
2022/01/16 07:25:07;;;;;;;;;;;;;;;-0.11;93.35;98445.16;5103280;28;19927;-76
2022/01/16 07:27:34;;;;;;;;;;;;;;;-0.09;93.57;98441.63;5114725;28;20439;-75
2022/01/16 07:30:01;;;;;;;;;;;;;;;-0.09;93.60;98448.50;5113892;28;19928;-73
2022/01/16 07:32:27;;;;;;;;;;;;;;;-0.11;93.99;98440.06;5114066;28;19935;-74
2022/01/16 07:34:54;;;;;;;;;;;;;;;-0.10;93.62;98436.63;5094667;28;19924;-74
2022/01/16 07:37:22;;;;;;;;;;;;;;;-0.06;93.53;98433.00;5093726;28;20273;-74
2022/01/16 07:39:48;;;;;;;;;;;;;;;-0.02;93.71;98437.88;5093679;28;20389;-73
2022/01/16 07:42:15;;;;;;;;;;;;;;;0.09;93.08;98414.34;5093767;28;20370;-75
2022/01/16 07:44:41;;;;;;;;;;;;;;;0.17;92.66;98408.84;5093797;28;19924;-74
2022/01/16 07:47:08;;;;;;;;;;;;;;;0.23;92.63;98403.41;5093368;28;19924;-77
2022/01/16 07:49:35;;;;;;;;;;;;;;;0.31;92.37;98408.16;5093962;28;19924;-75
2022/01/16 07:52:01;;;;;;;;;;;;;;;0.37;92.38;98398.44;5114126;28;19937;-78
2022/01/16 07:54:29;;;;;;;;;;;;;;;0.42;92.07;98400.78;5113614;28;19969;-77
2022/01/16 07:56:56;;;;;;;;;;;;;;;0.45;91.79;98387.81;5113516;28;19924;-73
2022/01/16 07:59:22;;;;;;;;;;;;;;;0.51;91.38;98384.94;5114064;28;19924;-74
2022/01/16 08:01:49;;;;;;;;;;;;;;;0.60;91.44;98375.97;5113777;28;19931;-76
2022/01/16 08:04:15;;;;;;;;;;;;;;;0.65;90.37;98374.00;5113628;28;19931;-77
2022/01/16 08:06:42;;;;;;;;;;;;;;;0.65;90.38;98362.03;5113854;28;19923;-76
2022/01/16 08:09:09;;;;;;;;;;;;;;;0.60;90.63;98351.19;5113799;28;19924;-73
2022/01/16 08:11:37;;;;;;;;;;;;;;;0.60;91.10;98338.41;5113398;28;19947;-76
2022/01/16 08:14:03;;;;;;;;;;;;;;;0.61;90.29;98329.00;5113532;28;20377;-73
2022/01/16 08:16:30;;;;;;;;;;;;;;;0.64;90.95;98344.19;5113557;28;19947;-72
2022/01/16 08:18:57;;;;;;;;;;;;;;;0.64;90.41;98346.75;5113605;28;19924;-76
2022/01/16 08:21:23;;;;;;;;;;;;;;;0.62;90.71;98341.72;5113198;28;19924;-75
2022/01/16 08:23:50;;;;;;;;;;;;;;;0.59;90.52;98341.88;5112437;28;19923;-75
2022/01/16 08:26:16;;;;;;;;;;;;;;;0.64;90.13;98351.84;5092965;28;19931;-74
2022/01/16 08:28:44;;;;;;;;;;;;;;;0.65;90.56;98345.84;5092830;28;20378;-74
2022/01/16 08:31:11;;;;;;;;;;;;;;;0.62;90.50;98336.59;5092740;28;19924;-73
2022/01/16 08:33:38;;;;;;;;;;;;;;;0.61;90.78;98326.44;5092951;28;20428;-75
2022/01/16 08:36:05;;;;;;;;;;;;;;;0.56;90.91;98316.44;5092790;28;19924;-75
2022/01/16 08:38:32;;;;;;;;;;;;;;;0.56;90.71;98311.31;5092714;28;20372;-74
2022/01/16 08:40:59;;;;;;;;;;;;;;;0.54;90.72;98310.59;5092888;28;19930;-75
2022/01/16 08:43:27;;;;;;;;;;;;;;;0.50;91.05;98310.84;5092917;28;19924;-74
2022/01/16 08:45:55;;;;;;;;;;;;;;;0.45;91.17;98300.84;5092526;28;19985;-74
2022/01/16 08:48:22;;;;;;;;;;;;;;;0.43;90.63;98285.56;5092792;28;19924;-75
2022/01/16 08:50:48;;;;;;;;;;;;;;;0.43;91.03;98280.44;5092830;28;19928;-73
2022/01/16 08:53:15;;;;;;;;;;;;;;;0.49;91.25;98271.63;5093032;28;19924;-73
2022/01/16 08:55:41;;;;;;;;;;;;;;;0.53;90.73;98264.59;5092745;28;19924;-75
2022/01/16 08:58:08;;;;;;;;;;;;;;;0.58;90.32;98262.63;5092896;28;19924;-74
2022/01/16 09:00:35;;;;;;;;;;;;;;;0.60;89.78;98256.53;5092676;28;19928;-75
2022/01/16 09:03:03;;;;;;;;;;;;;;;0.59;90.49;98254.03;5092425;28;20412;-74
2022/01/16 09:05:30;;;;;;;;;;;;;;;0.56;90.59;98247.34;5092593;28;19931;-74
2022/01/16 09:07:57;;;;;;;;;;;;;;;0.58;89.88;98240.41;5092259;28;19935;-75
2022/01/16 09:10:25;;;;;;;;;;;;;;;0.58;90.52;98242.97;5092441;28;19924;-71
2022/01/16 09:12:51;;;;;;;;;;;;;;;0.58;90.11;98230.19;5092401;28;20363;-71
2022/01/16 09:15:18;;;;;;;;;;;;;;;0.60;89.87;98232.66;5092504;28;20390;-74
2022/01/16 09:17:44;;;;;;;;;;;;;;;0.58;90.43;98240.41;5092635;28;19936;-72
2022/01/16 09:20:14;;;;;;;;;;;;;;;0.60;89.57;98236.03;5092339;28;20393;-74
2022/01/16 09:22:41;;;;;;;;;;;;;;;0.57;90.14;98231.09;5092730;28;20419;-73
2022/01/16 09:25:10;;;;;;;;;;;;;;;0.50;90.49;98226.41;5104131;28;19931;-76
2022/01/16 09:27:36;;;;;;;;;;;;;;;0.52;90.07;98219.47;5112600;28;19950;-75
2022/01/16 09:30:04;;;;;;;;;;;;;;;0.54;90.41;98210.81;5112550;28;19924;-75
2022/01/16 09:32:31;;;;;;;;;;;;;;;0.51;90.26;98193.03;5112756;28;19923;-75
2022/01/16 09:34:57;;;;;;;;;;;;;;;0.49;90.23;98181.22;5116628;28;19924;-73
2022/01/16 09:37:25;;;;;;;;;;;;;;;0.45;90.30;98185.72;5116788;28;19924;-74
2022/01/16 09:39:54;;;;;;;;;;;;;;;0.39;90.18;98178.38;5116595;28;19928;-74
2022/01/16 09:42:22;;;;;;;;;;;;;;;0.40;90.42;98159.56;5116628;28;19955;-69
2022/01/16 09:44:49;;;;;;;;;;;;;;;0.39;89.90;98142.56;5116646;28;19928;-74
2022/01/16 09:47:16;;;;;;;;;;;;;;;0.36;89.89;98129.91;5116206;28;19924;-73
2022/01/16 09:49:42;;;;;;;;;;;;;;;0.40;89.68;98116.88;5116051;28;19924;-75
2022/01/16 09:52:09;;;;;;;;;;;;;;;0.43;90.42;98124.38;5116119;27;19927;-74
2022/01/16 09:54:38;;;;;;;;;;;;;;;0.45;89.62;98119.19;5116157;28;19923;-76
2022/01/16 09:57:05;;;;;;;;;;;;;;;0.56;89.67;98100.69;5115936;28;19923;-75
2022/01/16 09:59:32;;;;;;;;;;;;;;;0.57;89.49;98095.50;5116221;28;20390;-75
2022/01/16 10:01:58;;;;;;;;;;;;;;;0.63;89.23;98082.34;5115916;28;19924;-74
2022/01/16 10:04:32;;;;;;;;;;;;;;;0.68;88.26;98078.69;5116036;28;19924;-72
2022/01/16 10:07:00;;;;;;;;;;;;;;;0.68;88.91;98076.13;5115849;28;19924;-75
2022/01/16 10:09:27;;;;;;;;;;;;;;;0.68;89.03;98076.97;5115542;28;19923;-75
2022/01/16 10:11:57;;;;;;;;;;;;;;;0.79;88.14;98055.84;5115826;28;19931;-76
2022/01/16 10:14:28;;;;;;;;;;;;;;;0.74;87.88;98052.75;5115514;28;19924;-76
2022/01/16 10:16:55;;;;;;;;;;;;;;;0.74;88.13;98045.06;5115594;28;20078;-76
2022/01/16 10:19:24;;;;;;;;;;;;;;;0.81;87.39;98026.69;5115521;28;19924;-74
2022/01/16 10:21:51;;;;;;;;;;;;;;;0.81;87.21;98023.31;5115924;28;19924;-72
2022/01/16 10:24:19;;;;;;;;;;;;;;;0.74;87.64;98016.91;5110913;28;20289;-76
2022/01/16 10:26:46;;;;;;;;;;;;;;;0.75;87.46;98005.78;5095161;28;20618;-76
2022/01/16 10:29:17;;;;;;;;;;;;;;;0.73;87.48;98000.75;5095129;28;19931;-74
2022/01/16 10:31:44;;;;;;;;;;;;;;;0.71;87.44;97988.94;5094902;28;19928;-75
2022/01/16 10:34:24;;;;;;;;;;;;;;;0.71;87.23;97989.75;5095256;28;19928;-74
2022/01/16 10:36:51;;;;;;;;;;;;;;;0.69;87.55;97983.91;5095008;28;19931;-73
2022/01/16 10:39:18;;;;;;;;;;;;;;;0.71;87.02;97971.84;5094832;28;19931;-74
2022/01/16 10:41:44;;;;;;;;;;;;;;;0.73;86.42;97964.91;5094737;28;20405;-74
2022/01/16 10:44:26;;;;;;;;;;;;;;;0.74;85.92;97960.59;5094543;28;19928;-74
2022/01/16 10:46:54;;;;;;;;;;;;;;;0.74;86.47;97960.59;5094704;28;20402;-75
2022/01/16 10:49:21;;;;;;;;;;;;;;;0.74;86.39;97947.81;5094709;28;19931;-76
2022/01/16 10:52:01;;;;;;;;;;;;;;;0.72;86.20;97934.28;5094679;28;19935;-76
2022/01/16 10:54:32;;;;;;;;;;;;;;;0.76;85.45;97926.31;5094719;28;19970;-72
2022/01/16 10:56:58;;;;;;;;;;;;;;;0.77;85.34;97911.78;5094444;28;19971;-74
2022/01/16 10:59:25;;;;;;;;;;;;;;;0.69;85.48;97911.44;5094874;28;19931;-75
2022/01/16 11:02:09;;;;;;;;;;;;;;;0.74;84.94;97900.00;5094373;28;20374;-72
2022/01/16 11:04:36;;;;;;;;;;;;;;;0.80;84.27;97903.94;5094742;28;19924;-75
2022/01/16 11:07:03;;;;;;;;;;;;;;;0.86;84.16;97889.03;5094311;28;20302;-75
2022/01/16 11:09:31;;;;;;;;;;;;;;;0.90;83.69;97878.59;5094381;28;19928;-74
2022/01/16 11:11:59;;;;;;;;;;;;;;;0.94;83.18;97877.50;5094492;28;19931;-75
2022/01/16 11:14:26;;;;;;;;;;;;;;;1.00;83.18;97877.94;5094325;28;20457;-74
2022/01/16 11:16:53;;;;;;;;;;;;;;;0.97;83.27;97864.50;5094133;28;19998;-70
2022/01/16 11:19:24;;;;;;;;;;;;;;;0.96;83.43;97873.91;5094115;28;19935;-75
2022/01/16 11:21:53;;;;;;;;;;;;;;;0.99;82.71;97862.66;5094203;28;20646;-75
2022/01/16 11:24:35;;;;;;;;;;;;;;;1.01;82.81;97856.53;5098791;28;20293;-74
2022/01/16 11:27:01;;;;;;;;;;;;;;;1.11;82.30;97853.41;5114194;28;19951;-75
2022/01/16 11:29:29;;;;;;;;;;;;;;;1.12;82.36;97842.25;5114436;28;19924;-73
2022/01/16 11:31:57;;;;;;;;;;;;;;;1.02;83.47;97830.00;5114566;28;20026;-74
2022/01/16 11:34:27;;;;;;;;;;;;;;;0.88;85.26;97817.25;5114511;28;19974;-66
2022/01/16 11:36:54;;;;;;;;;;;;;;;0.72;85.93;97814.00;5114360;28;19978;-71
2022/01/16 11:39:21;;;;;;;;;;;;;;;0.65;87.03;97811.81;5114097;28;19932;-74
2022/01/16 11:41:50;;;;;;;;;;;;;;;0.63;87.07;97808.53;5114196;28;19964;-73
2022/01/16 11:44:23;;;;;;;;;;;;;;;0.59;86.99;97798.56;5113989;28;20394;-72
2022/01/16 11:46:51;;;;;;;;;;;;;;;0.54;87.71;97786.09;5114051;28;19938;-75
2022/01/16 11:49:19;;;;;;;;;;;;;;;0.54;87.83;97764.78;5113718;28;20297;-75
2022/01/16 11:52:02;;;;;;;;;;;;;;;0.49;88.21;97762.53;5113803;28;19931;-75
2022/01/16 11:54:33;;;;;;;;;;;;;;;0.46;88.99;97762.69;5113986;27;19923;-75
2022/01/16 11:57:04;;;;;;;;;;;;;;;0.47;88.77;97751.56;5113281;28;19924;-74
2022/01/16 11:59:37;;;;;;;;;;;;;;;0.48;88.00;97752.38;5114436;28;20282;-71
2022/01/16 12:02:05;;;;;;;;;;;;;;;0.47;87.85;97746.44;5113632;28;19924;-72
2022/01/16 12:04:50;;;;;;;;;;;;;;;0.46;88.12;97743.97;5113896;28;19931;-75
2022/01/16 12:07:35;;;;;;;;;;;;;;;0.46;86.62;97737.09;5113762;28;19933;-76
2022/01/16 12:10:04;;;;;;;;;;;;;;;0.56;83.63;97735.63;5113510;28;19923;-72
2022/01/16 12:12:37;;;;;;;;;;;;;;;0.59;82.81;97730.34;5113843;28;19928;-75
2022/01/16 12:15:05;;;;;;;;;;;;;;;0.54;82.98;97724.69;5113489;28;19931;-73
2022/01/16 12:17:32;;;;;;;;;;;;;;;0.51;83.45;97719.72;5113511;28;19969;-72
2022/01/16 12:19:59;;;;;;;;;;;;;;;0.46;84.08;97723.50;5113452;28;19931;-73
2022/01/16 12:22:42;;;;;;;;;;;;;;;0.42;81.62;97712.66;5113677;28;20290;-70
2022/01/16 12:25:16;;;;;;;;;;;;;;;0.33;81.58;97690.19;5101556;28;20019;-74
2022/01/16 12:27:48;;;;;;;;;;;;;;;0.29;81.41;97678.53;5092871;28;19924;-73
2022/01/16 12:30:25;;;;;;;;;;;;;;;0.19;82.54;97679.06;5092959;28;19947;-74
2022/01/16 12:32:52;;;;;;;;;;;;;;;0.22;82.55;97670.41;5092989;28;19926;-75
2022/01/16 12:35:37;;;;;;;;;;;;;;;0.21;82.62;97676.44;5092581;28;20298;-72
2022/01/16 12:38:06;;;;;;;;;;;;;;;0.20;83.70;97642.34;5092725;28;19924;-74
2022/01/16 12:40:34;;;;;;;;;;;;;;;0.18;85.15;97651.03;5092562;28;19924;-74
2022/01/16 12:43:02;;;;;;;;;;;;;;;0.17;84.91;97646.84;5092756;28;19928;-74
2022/01/16 12:45:29;;;;;;;;;;;;;;;0.21;85.13;97633.78;5092364;28;20032;-66
2022/01/16 12:47:57;;;;;;;;;;;;;;;0.18;84.76;97633.97;5092900;28;19930;-73
2022/01/16 12:50:23;;;;;;;;;;;;;;;0.20;84.50;97632.13;5092662;28;19924;-73
2022/01/16 12:52:50;;;;;;;;;;;;;;;0.26;83.69;97627.53;5092392;28;19924;-72
2022/01/16 12:55:17;;;;;;;;;;;;;;;0.22;84.38;97634.59;5092626;28;19924;-74
2022/01/16 12:57:45;;;;;;;;;;;;;;;0.24;84.33;97621.72;5092263;28;20274;-70
2022/01/16 13:00:12;;;;;;;;;;;;;;;0.18;83.72;97608.41;5092643;28;19936;-69
2022/01/16 13:02:39;;;;;;;;;;;;;;;0.13;83.86;97597.66;5092314;28;19924;-70
2022/01/16 13:05:06;;;;;;;;;;;;;;;0.06;84.99;97586.16;5092546;28;19931;-73
2022/01/16 13:07:33;;;;;;;;;;;;;;;0.04;84.31;97575.22;5092770;28;19924;-72
2022/01/16 13:10:00;;;;;;;;;;;;;;;0.00;85.39;97563.56;5096618;28;19931;-68
2022/01/16 13:12:27;;;;;;;;;;;;;;;-0.08;86.04;97551.25;5096571;28;19935;-73
2022/01/16 13:14:59;;;;;;;;;;;;;;;-0.25;88.63;97551.47;5096663;28;19931;-73
2022/01/16 13:17:25;;;;;;;;;;;;;;;-0.44;90.58;97539.00;5096419;28;20401;-71
2022/01/16 13:19:53;;;;;;;;;;;;;;;-0.56;92.05;97539.78;5096049;28;19924;-73
2022/01/16 13:22:23;;;;;;;;;;;;;;;-0.69;93.82;97524.38;5096593;28;19962;-74
2022/01/16 13:24:53;;;;;;;;;;;;;;;-0.79;95.08;97520.75;5105154;28;19923;-75
2022/01/16 13:27:20;;;;;;;;;;;;;;;-0.85;95.80;97516.81;5116413;28;19924;-76
2022/01/16 13:29:48;;;;;;;;;;;;;;;-0.96;96.90;97503.88;5116745;28;19946;-74
2022/01/16 13:32:17;;;;;;;;;;;;;;;-1.03;97.53;97490.66;5116494;28;19924;-73